createdAt,value
2018-07-26T00:01:03.670Z,52.00
2018-07-26T00:03:33.579Z,52.30
2018-07-26T00:06:05.779Z,52.30
2018-07-26T00:08:36.295Z,52.40
2018-07-26T00:11:06.082Z,52.50
2018-07-26T00:13:35.705Z,52.50
2018-07-26T00:16:07.894Z,52.70
2018-07-26T00:18:37.988Z,52.70
2018-07-26T00:21:07.701Z,52.50
2018-07-26T00:23:37.174Z,53.30
2018-07-26T00:26:11.016Z,52.80
2018-07-26T00:28:40.118Z,52.70
2018-07-26T00:31:11.352Z,52.90
2018-07-26T00:33:41.726Z,53.00
2018-07-26T00:36:15.686Z,52.70
2018-07-26T00:38:47.183Z,52.70
2018-07-26T00:41:17.825Z,53.20
2018-07-26T00:43:48.722Z,53.30
2018-07-26T00:48:42.667Z,53.50
2018-07-26T00:51:14.979Z,54.00
2018-07-26T00:53:46.081Z,54.00
2018-07-26T00:56:19.153Z,54.00
2018-07-26T00:58:49.081Z,54.20
2018-07-26T01:01:20.961Z,54.30
2018-07-26T01:03:52.813Z,54.50
2018-07-26T01:06:24.747Z,54.50
2018-07-26T01:08:56.863Z,54.60
2018-07-26T01:11:29.564Z,54.70
2018-07-26T01:14:01.823Z,54.90
2018-07-26T01:16:32.715Z,55.70
2018-07-26T01:19:08.588Z,55.00
2018-07-26T01:21:39.968Z,55.10
2018-07-26T01:24:13.683Z,55.40
2018-07-26T01:26:44.159Z,55.80
2018-07-26T01:29:15.343Z,55.80
2018-07-26T01:31:51.681Z,56.00
2018-07-26T01:34:22.159Z,56.10
2018-07-26T01:36:56.496Z,56.20
2018-07-26T01:39:26.968Z,56.20
2018-07-26T01:41:58.353Z,56.90
2018-07-26T01:44:28.793Z,56.30
2018-07-26T01:46:58.920Z,56.40
2018-07-26T01:49:29.926Z,56.30
2018-07-26T01:52:07.547Z,56.30
2018-07-26T01:54:42.793Z,56.40
2018-07-26T01:57:15.151Z,56.30
2018-07-26T01:59:47.810Z,56.40
2018-07-26T02:02:19.750Z,56.40
2018-07-26T02:05:12.290Z,56.30
2018-07-26T02:07:42.476Z,56.10
2018-07-26T02:10:14.253Z,56.10
2018-07-26T02:12:47.564Z,56.20
2018-07-26T02:15:18.036Z,56.00
2018-07-26T02:17:48.327Z,56.20
2018-07-26T02:20:18.659Z,56.20
2018-07-26T02:22:48.966Z,56.30
2018-07-26T02:25:19.141Z,56.40
2018-07-26T02:27:50.950Z,56.40
2018-07-26T02:30:22.450Z,56.60
2018-07-26T02:32:54.473Z,56.90
2018-07-26T02:35:24.568Z,57.20
2018-07-26T02:37:56.319Z,57.20
2018-07-26T02:40:26.223Z,57.00
2018-07-26T02:42:56.512Z,57.30
2018-07-26T02:45:26.916Z,57.40
2018-07-26T02:47:56.434Z,57.40
2018-07-26T02:50:26.399Z,57.60
2018-07-26T02:52:57.620Z,57.70
2018-07-26T02:55:27.288Z,57.90
2018-07-26T02:57:56.525Z,57.90
2018-07-26T03:00:26.681Z,58.10
2018-07-26T03:02:58.686Z,58.20
2018-07-26T03:05:28.314Z,58.30
2018-07-26T03:07:58.443Z,58.40
2018-07-26T03:10:28.668Z,58.40
2018-07-26T03:15:35.015Z,58.20
2018-07-26T03:18:04.704Z,59.10
2018-07-26T03:20:35.275Z,58.50
2018-07-26T03:23:16.035Z,58.40
2018-07-26T03:25:51.773Z,58.40
2018-07-26T03:28:24.183Z,58.50
2018-07-26T03:30:54.335Z,58.50
2018-07-26T03:33:24.330Z,58.50
2018-07-26T03:35:54.155Z,58.80
2018-07-26T03:38:25.504Z,58.80
2018-07-26T03:40:55.582Z,58.90
2018-07-26T03:43:25.607Z,58.90
2018-07-26T03:45:55.441Z,59.10
2018-07-26T03:48:25.415Z,59.20
2018-07-26T03:50:55.734Z,59.20
2018-07-26T03:53:25.908Z,59.30
2018-07-26T03:58:25.115Z,59.30
2018-07-26T04:00:56.801Z,59.40
2018-07-26T04:03:26.404Z,59.40
2018-07-26T04:05:56.796Z,59.50
2018-07-26T04:08:26.622Z,59.60
2018-07-26T04:10:56.288Z,59.60
2018-07-26T04:13:25.720Z,59.80
2018-07-26T04:15:55.074Z,59.80
2018-07-26T04:18:25.097Z,59.60
2018-07-26T04:20:54.907Z,59.50
2018-07-26T04:23:26.561Z,59.60
2018-07-26T04:25:55.921Z,59.50
2018-07-26T04:28:25.439Z,59.50
2018-07-26T04:30:54.818Z,59.60
2018-07-26T04:33:27.826Z,59.50
2018-07-26T04:35:57.500Z,59.10
2018-07-26T04:38:27.522Z,59.40
2018-07-26T04:40:58.374Z,59.00
2018-07-26T04:43:29.860Z,59.00
2018-07-26T04:46:00.890Z,58.70
2018-07-26T04:48:30.616Z,58.90
2018-07-26T04:51:01.567Z,58.00
2018-07-26T04:53:36.185Z,58.00
2018-07-26T04:56:06.142Z,57.70
2018-07-26T04:58:37.337Z,57.40
2018-07-26T05:01:07.719Z,57.20
2018-07-26T05:03:37.540Z,56.90
2018-07-26T05:06:08.533Z,56.70
2018-07-26T05:08:38.081Z,56.90
2018-07-26T05:11:08.570Z,56.50
2018-07-26T05:13:39.076Z,56.00
2018-07-26T05:16:13.358Z,55.80
2018-07-26T05:18:43.394Z,55.30
2018-07-26T05:21:13.648Z,54.80
2018-07-26T05:23:44.789Z,54.40
2018-07-26T05:26:14.629Z,53.80
2018-07-26T05:28:44.239Z,53.50
2018-07-26T05:31:14.556Z,52.70
2018-07-26T05:33:45.725Z,52.30
2018-07-26T05:36:15.739Z,52.00
2018-07-26T05:38:45.877Z,51.20
2018-07-26T05:41:15.473Z,50.60
2018-07-26T05:43:51.694Z,50.00
2018-07-26T05:46:21.570Z,49.60
2018-07-26T05:48:52.358Z,49.90
2018-07-26T05:51:22.746Z,49.80
2018-07-26T05:53:53.481Z,49.90
2018-07-26T05:56:23.690Z,50.00
2018-07-26T05:58:53.889Z,50.40
2018-07-26T06:01:24.005Z,50.70
2018-07-26T06:03:54.319Z,50.60
2018-07-26T06:06:24.155Z,50.70
2018-07-26T06:08:54.408Z,50.90
2018-07-26T06:11:24.785Z,51.20
2018-07-26T06:13:56.384Z,51.20
2018-07-26T06:16:25.932Z,51.70
2018-07-26T06:18:55.630Z,51.80
2018-07-26T06:21:25.209Z,51.70
2018-07-26T06:23:58.805Z,52.10
2018-07-26T06:26:28.273Z,51.90
2018-07-26T06:28:58.438Z,52.10
2018-07-26T06:31:28.798Z,51.80
2018-07-26T06:34:00.011Z,51.30
2018-07-26T06:36:30.159Z,51.10
2018-07-26T06:38:59.554Z,51.10
2018-07-26T06:41:30.003Z,51.20
2018-07-26T06:44:01.987Z,51.00
2018-07-26T06:46:31.760Z,51.20
2018-07-26T06:49:02.099Z,51.60
2018-07-26T06:51:31.746Z,51.40
2018-07-26T06:54:01.788Z,51.50
2018-07-26T06:56:32.242Z,51.30
2018-07-26T06:59:02.840Z,51.50
2018-07-26T07:01:32.665Z,51.40
2018-07-26T07:04:03.260Z,51.60
2018-07-26T07:06:33.848Z,51.00
2018-07-26T07:09:04.829Z,51.10
2018-07-26T07:11:35.084Z,50.60
2018-07-26T07:14:07.252Z,49.40
2018-07-26T07:16:39.936Z,49.10
2018-07-26T07:19:10.312Z,47.90
2018-07-26T07:21:40.359Z,46.70
2018-07-26T07:24:14.280Z,45.60
2018-07-26T07:26:44.444Z,44.70
2018-07-26T07:29:14.432Z,44.20
2018-07-26T07:31:43.973Z,43.40
2018-07-26T07:34:14.432Z,42.70
2018-07-26T07:36:46.271Z,41.90
2018-07-26T07:41:46.134Z,40.90
2018-07-26T07:44:16.246Z,40.20
2018-07-26T07:46:47.558Z,40.00
2018-07-26T07:49:19.654Z,39.50
2018-07-26T07:51:50.086Z,39.40
2018-07-26T07:54:22.255Z,39.60
2018-07-26T07:56:51.695Z,39.20
2018-07-26T07:59:21.238Z,39.00
2018-07-26T08:01:51.301Z,38.10
2018-07-26T08:04:21.416Z,37.80
2018-07-26T08:09:21.534Z,38.00
2018-07-26T08:11:51.411Z,38.00
2018-07-26T08:14:22.737Z,37.70
2018-07-26T08:16:52.237Z,37.60
2018-07-26T08:19:23.102Z,37.60
2018-07-26T08:21:53.625Z,37.10
2018-07-26T08:24:23.643Z,36.80
2018-07-26T08:26:53.628Z,36.80
2018-07-26T08:29:24.607Z,36.80
2018-07-26T08:31:55.196Z,36.90
2018-07-26T08:34:24.745Z,37.20
2018-07-26T08:36:55.208Z,36.60
2018-07-26T08:39:25.388Z,35.90
2018-07-26T08:41:55.703Z,35.40
2018-07-26T08:44:26.376Z,35.60
2018-07-26T08:46:56.589Z,34.70
2018-07-26T08:49:26.544Z,34.10
2018-07-26T08:51:58.082Z,34.40
2018-07-26T08:54:27.536Z,34.00
2018-07-26T08:56:57.194Z,33.90
2018-07-26T08:59:26.546Z,33.00
2018-07-26T09:01:56.460Z,32.80
2018-07-26T09:04:26.118Z,33.80
2018-07-26T09:06:55.833Z,32.10
2018-07-26T09:09:27.332Z,32.20
2018-07-26T09:11:57.535Z,31.20
2018-07-26T09:14:27.106Z,30.50
2018-07-26T09:16:56.453Z,30.70
2018-07-26T09:19:26.056Z,31.10
2018-07-26T09:21:57.111Z,30.80
2018-07-26T09:24:26.989Z,30.20
2018-07-26T09:26:56.863Z,29.70
2018-07-26T09:29:28.750Z,29.70
2018-07-26T09:34:34.053Z,30.00
2018-07-26T09:37:04.657Z,29.30
2018-07-26T09:39:35.898Z,29.40
2018-07-26T09:42:06.037Z,29.10
2018-07-26T09:44:36.231Z,29.00
2018-07-26T09:47:06.466Z,29.40
2018-07-26T09:49:35.997Z,29.00
2018-07-26T09:52:06.393Z,29.20
2018-07-26T09:54:36.206Z,29.40
2018-07-26T09:57:06.411Z,28.90
2018-07-26T09:59:36.418Z,28.40
2018-07-26T10:04:37.884Z,28.20
2018-07-26T10:07:08.377Z,27.60
2018-07-26T10:09:37.945Z,28.20
2018-07-26T10:12:09.448Z,28.60
2018-07-26T10:14:39.985Z,28.80
2018-07-26T10:17:10.228Z,28.30
2018-07-26T10:19:40.255Z,28.20
2018-07-26T10:22:10.937Z,28.10
2018-07-26T10:24:41.321Z,28.20
2018-07-26T10:27:11.995Z,28.10
2018-07-26T10:29:41.571Z,28.00
2018-07-26T10:32:11.757Z,27.60
2018-07-26T10:34:41.280Z,27.60
2018-07-26T10:37:15.315Z,27.40
2018-07-26T10:39:45.359Z,27.10
2018-07-26T10:42:15.678Z,27.00
2018-07-26T10:44:45.846Z,26.60
2018-07-26T10:47:17.158Z,27.30
2018-07-26T10:49:47.878Z,27.20
2018-07-26T10:52:18.513Z,27.10
2018-07-26T10:54:49.183Z,27.10
2018-07-26T10:57:21.027Z,26.50
2018-07-26T10:59:51.896Z,26.80
2018-07-26T11:02:21.552Z,26.60
2018-07-26T11:04:51.248Z,27.00
2018-07-26T11:07:23.429Z,27.00
2018-07-26T11:09:53.550Z,27.10
2018-07-26T11:12:23.466Z,26.40
2018-07-26T11:14:55.976Z,26.30
2018-07-26T11:17:29.145Z,26.70
2018-07-26T11:19:59.875Z,26.40
2018-07-26T11:22:31.086Z,26.10
2018-07-26T11:25:01.645Z,26.40
2018-07-26T11:27:35.629Z,26.40
2018-07-26T11:30:06.092Z,26.50
2018-07-26T11:32:35.905Z,26.50
2018-07-26T11:35:06.677Z,26.60
2018-07-26T11:37:40.273Z,26.30
2018-07-26T11:40:11.388Z,26.20
2018-07-26T11:45:11.557Z,26.40
2018-07-26T11:47:42.563Z,26.00
2018-07-26T11:50:13.400Z,25.90
2018-07-26T11:52:43.957Z,26.10
2018-07-26T11:55:17.056Z,26.10
2018-07-26T11:57:47.721Z,25.90
2018-07-26T12:00:18.047Z,26.10
2018-07-26T12:02:47.670Z,26.20
2018-07-26T12:05:18.804Z,26.60
2018-07-26T12:07:50.908Z,26.30
2018-07-26T12:10:21.318Z,26.40
2018-07-26T12:12:51.659Z,26.20
2018-07-26T12:15:23.173Z,26.20
2018-07-26T12:17:53.399Z,26.20
2018-07-26T12:20:25.024Z,26.20
2018-07-26T12:22:56.035Z,26.40
2018-07-26T12:28:42.737Z,26.20
2018-07-26T12:31:13.967Z,26.30
2018-07-26T12:33:47.817Z,27.20
2018-07-26T12:36:20.809Z,26.60
2018-07-26T12:38:53.822Z,26.40
2018-07-26T12:41:24.470Z,26.40
2018-07-26T12:43:54.756Z,26.40
2018-07-26T12:46:27.322Z,26.50
2018-07-26T12:48:58.251Z,26.60
2018-07-26T12:51:28.547Z,26.70
2018-07-26T12:54:00.423Z,26.80
2018-07-26T12:56:31.470Z,26.90
2018-07-26T12:59:01.253Z,27.40
2018-07-26T13:01:32.517Z,26.90
2018-07-26T13:04:03.753Z,27.60
2018-07-26T13:06:34.485Z,26.90
2018-07-26T13:09:08.512Z,26.60
2018-07-26T13:14:11.371Z,26.40
2018-07-26T13:16:41.686Z,26.30
2018-07-26T13:19:16.726Z,26.00
2018-07-26T13:21:47.340Z,26.30
2018-07-26T13:24:18.585Z,26.20
2018-07-26T13:26:48.663Z,25.70
2018-07-26T13:29:19.148Z,26.20
2018-07-26T13:31:49.685Z,25.50
2018-07-26T13:34:21.488Z,25.70
2018-07-26T13:36:52.627Z,25.50
2018-07-26T13:39:23.722Z,25.30
2018-07-26T13:41:53.908Z,25.10
2018-07-26T13:44:25.342Z,24.80
2018-07-26T13:46:55.887Z,24.70
2018-07-26T13:49:26.231Z,24.80
2018-07-26T13:51:56.660Z,24.80
2018-07-26T13:54:27.918Z,25.00
2018-07-26T13:56:57.781Z,25.20
2018-07-26T13:59:28.170Z,25.40
2018-07-26T14:01:58.673Z,25.50
2018-07-26T14:04:28.579Z,25.30
2018-07-26T14:06:58.115Z,25.40
2018-07-26T14:09:28.343Z,25.80
2018-07-26T14:11:57.939Z,25.20
2018-07-26T14:14:28.522Z,25.30
2018-07-26T14:16:59.320Z,25.20
2018-07-26T14:19:29.221Z,25.10
2018-07-26T14:21:58.560Z,26.20
2018-07-26T14:24:30.053Z,26.60
2018-07-26T14:26:59.702Z,26.80
2018-07-26T14:29:29.412Z,27.00
2018-07-26T14:31:58.794Z,27.40
2018-07-26T14:34:29.173Z,27.60
2018-07-26T14:36:59.108Z,27.80
2018-07-26T14:39:28.339Z,28.10
2018-07-26T14:41:57.850Z,28.10
2018-07-26T14:44:27.309Z,28.20
2018-07-26T14:46:56.574Z,28.20
2018-07-26T14:49:26.232Z,28.60
2018-07-26T14:51:55.976Z,28.40
2018-07-26T14:54:25.694Z,28.50
2018-07-26T14:56:54.968Z,28.20
2018-07-26T14:59:24.195Z,28.10
2018-07-26T15:01:54.016Z,28.00
2018-07-26T15:04:23.836Z,28.30
2018-07-26T15:06:53.413Z,28.20
2018-07-26T15:09:26.631Z,28.20
2018-07-26T15:11:56.122Z,28.10
2018-07-26T15:14:25.665Z,28.40
2018-07-26T15:16:56.923Z,28.40
2018-07-26T15:19:26.281Z,28.40
2018-07-26T15:21:57.804Z,28.50
2018-07-26T15:24:28.363Z,28.50
2018-07-26T15:26:57.822Z,28.70
2018-07-26T15:29:29.032Z,29.20
2018-07-26T15:31:58.513Z,29.10
2018-07-26T15:34:27.840Z,28.80
2018-07-26T15:36:58.598Z,28.90
2018-07-26T15:39:28.393Z,28.70
2018-07-26T15:44:27.810Z,28.90
2018-07-26T15:46:58.371Z,28.90
2018-07-26T15:49:27.658Z,28.90
2018-07-26T15:51:58.671Z,29.00
2018-07-26T15:54:28.265Z,28.90
2018-07-26T15:56:57.775Z,28.90
2018-07-26T15:59:28.225Z,28.90
2018-07-26T16:01:58.788Z,28.80
2018-07-26T16:04:28.176Z,28.80
2018-07-26T16:06:57.606Z,28.80
2018-07-26T16:09:27.288Z,28.90
2018-07-26T16:11:56.823Z,28.70
2018-07-26T16:14:27.148Z,28.90
2018-07-26T16:16:56.542Z,29.00
2018-07-26T16:19:26.028Z,29.10
2018-07-26T16:21:56.506Z,29.30
2018-07-26T16:24:25.968Z,30.00
2018-07-26T16:26:56.036Z,29.30
2018-07-26T16:29:25.418Z,29.40
2018-07-26T16:31:55.088Z,29.50
2018-07-26T16:34:24.512Z,29.70
2018-07-26T16:36:53.991Z,29.60
2018-07-26T16:39:24.831Z,29.70
2018-07-26T16:44:24.500Z,29.40
2018-07-26T16:46:54.032Z,29.40
2018-07-26T16:49:23.482Z,28.80
2018-07-26T16:51:53.097Z,28.90
2018-07-26T16:54:22.668Z,28.80
2018-07-26T16:56:52.308Z,28.80
2018-07-26T16:59:21.880Z,28.70
2018-07-26T17:01:51.107Z,28.40
2018-07-26T17:04:21.137Z,28.50
2018-07-26T17:06:50.628Z,28.80
2018-07-26T17:09:20.114Z,28.60
2018-07-26T17:11:51.796Z,28.20
2018-07-26T17:14:21.642Z,28.60
2018-07-26T17:16:51.103Z,28.80
2018-07-26T17:19:20.356Z,29.10
2018-07-26T17:21:51.386Z,28.90
2018-07-26T17:24:20.779Z,28.80
2018-07-26T17:26:50.804Z,28.60
2018-07-26T17:29:21.061Z,28.70
2018-07-26T17:31:51.056Z,28.60
2018-07-26T17:34:20.370Z,28.60
2018-07-26T17:36:49.711Z,28.30
2018-07-26T17:39:19.041Z,28.00
2018-07-26T17:41:49.862Z,28.20
2018-07-26T17:44:20.004Z,28.90
2018-07-26T17:46:49.239Z,28.90
2018-07-26T17:49:18.421Z,29.40
2018-07-26T17:51:48.072Z,29.20
2018-07-26T17:54:17.399Z,29.00
2018-07-26T17:56:48.012Z,28.90
2018-07-26T17:59:17.483Z,29.20
2018-07-26T18:01:46.772Z,29.00
2018-07-26T18:04:16.309Z,29.30
2018-07-26T18:06:47.161Z,29.90
2018-07-26T18:11:46.191Z,29.50
2018-07-26T18:14:15.501Z,29.70
2018-07-26T18:16:47.674Z,30.20
2018-07-26T18:19:17.093Z,29.70
2018-07-26T18:21:46.661Z,30.00
2018-07-26T18:24:16.084Z,30.30
2018-07-26T18:26:45.711Z,30.10
2018-07-26T18:29:15.157Z,30.40
2018-07-26T18:31:46.070Z,30.30
2018-07-26T18:34:15.799Z,30.40
2018-07-26T18:36:45.190Z,30.80
2018-07-26T18:39:16.500Z,30.70
2018-07-26T18:41:46.145Z,30.90
2018-07-26T18:44:15.789Z,30.70
2018-07-26T18:46:46.021Z,30.60
2018-07-26T18:49:15.633Z,30.80
2018-07-26T18:51:46.262Z,30.90
2018-07-26T18:54:16.361Z,30.90
2018-07-26T18:56:45.944Z,31.20
2018-07-26T18:59:15.399Z,31.30
2018-07-26T19:04:15.555Z,31.90
2018-07-26T19:06:45.279Z,32.10
2018-07-26T19:09:15.299Z,32.20
2018-07-26T19:11:44.903Z,33.00
2018-07-26T19:14:14.807Z,32.60
2018-07-26T19:16:45.461Z,32.50
2018-07-26T19:19:15.569Z,33.00
2018-07-26T19:21:45.754Z,33.00
2018-07-26T19:24:15.704Z,33.20
2018-07-26T19:26:45.515Z,33.20
2018-07-26T19:29:17.060Z,33.20
2018-07-26T19:31:46.678Z,33.40
2018-07-26T19:34:16.737Z,33.90
2018-07-26T19:36:46.374Z,34.60
2018-07-26T19:39:17.630Z,34.90
2018-07-26T19:41:47.905Z,34.20
2018-07-26T19:44:17.883Z,34.40
2018-07-26T19:46:49.561Z,34.70
2018-07-26T19:49:19.400Z,34.90
2018-07-26T19:54:23.062Z,35.60
2018-07-26T19:56:53.791Z,35.70
2018-07-26T19:59:24.034Z,35.70
2018-07-26T20:01:54.459Z,36.20
2018-07-26T20:04:24.061Z,36.10
2018-07-26T20:06:53.560Z,36.40
2018-07-26T20:09:23.294Z,36.30
2018-07-26T20:11:52.954Z,36.70
2018-07-26T20:14:23.231Z,36.70
2018-07-26T20:16:52.863Z,36.80
2018-07-26T20:19:22.747Z,37.10
2018-07-26T20:21:51.951Z,37.40
2018-07-26T20:24:21.494Z,37.70
2018-07-26T20:26:50.763Z,37.70
2018-07-26T20:29:20.127Z,37.90
2018-07-26T20:31:52.879Z,38.00
2018-07-26T20:34:22.412Z,38.10
2018-07-26T20:36:52.088Z,38.30
2018-07-26T20:39:22.013Z,38.50
2018-07-26T20:41:51.723Z,38.40
2018-07-26T20:44:20.860Z,38.50
2018-07-26T20:49:19.902Z,38.80
2018-07-26T20:51:49.115Z,38.90
2018-07-26T20:54:18.325Z,38.90
2018-07-26T20:56:47.480Z,39.00
2018-07-26T20:59:16.724Z,39.50
2018-07-26T21:01:47.558Z,39.50
2018-07-26T21:04:18.249Z,39.40
2018-07-26T21:09:17.867Z,39.70
2018-07-26T21:11:50.203Z,40.00
2018-07-26T21:14:21.289Z,40.00
2018-07-26T21:16:51.563Z,40.10
2018-07-26T21:19:23.156Z,40.40
2018-07-26T21:21:56.069Z,40.60
2018-07-26T21:24:26.757Z,40.80
2018-07-26T21:26:55.849Z,41.00
2018-07-26T21:29:25.189Z,41.20
2018-07-26T21:31:55.591Z,41.20
2018-07-26T21:34:24.737Z,41.50
2018-07-26T21:36:54.219Z,41.60
2018-07-26T21:39:23.663Z,41.80
2018-07-26T21:41:53.739Z,42.10
2018-07-26T21:44:23.340Z,42.20
2018-07-26T21:46:54.118Z,42.60
2018-07-26T21:49:23.750Z,42.60
2018-07-26T21:51:53.236Z,42.60
2018-07-26T21:54:22.428Z,42.80
2018-07-26T21:56:53.155Z,43.00
2018-07-26T21:59:23.456Z,43.20
2018-07-26T22:01:53.823Z,43.30
2018-07-26T22:04:28.201Z,43.40
2018-07-26T22:06:58.000Z,43.50
2018-07-26T22:09:27.948Z,43.70
2018-07-26T22:11:58.180Z,44.10
2018-07-26T22:14:28.061Z,44.10
2018-07-26T22:16:59.838Z,44.20
2018-07-26T22:19:29.573Z,44.30
2018-07-26T22:21:59.805Z,44.50
2018-07-26T22:24:29.347Z,44.60
2018-07-26T22:26:59.159Z,44.70
2018-07-26T22:29:30.107Z,44.80
2018-07-26T22:31:59.787Z,44.70
2018-07-26T22:34:29.271Z,44.60
2018-07-26T22:36:59.257Z,44.50
2018-07-26T22:39:28.577Z,44.50
2018-07-26T22:41:58.366Z,44.40
2018-07-26T22:44:30.360Z,44.20
2018-07-26T22:46:59.861Z,44.30
2018-07-26T22:49:29.548Z,44.30
2018-07-26T22:52:00.892Z,44.20
2018-07-26T22:54:32.879Z,44.20
2018-07-26T22:57:02.246Z,44.20
2018-07-26T22:59:31.788Z,43.60
2018-07-26T23:02:01.189Z,44.20
2018-07-26T23:04:30.413Z,44.30
2018-07-26T23:06:59.701Z,44.30
2018-07-26T23:09:28.913Z,44.40
2018-07-26T23:11:59.292Z,44.30
2018-07-26T23:14:28.368Z,44.30
2018-07-26T23:16:57.452Z,44.50
2018-07-26T23:19:27.827Z,44.50
2018-07-26T23:21:57.543Z,44.70
2018-07-26T23:24:26.745Z,44.80
2018-07-26T23:26:55.951Z,45.10
2018-07-26T23:29:25.515Z,45.00
2018-07-26T23:31:54.605Z,45.00
2018-07-26T23:34:24.963Z,45.30
2018-07-26T23:36:54.749Z,45.60
2018-07-26T23:39:24.655Z,45.90
2018-07-26T23:41:53.892Z,45.90
2018-07-26T23:44:23.026Z,46.00
2018-07-26T23:46:52.272Z,46.00
2018-07-26T23:49:21.488Z,46.30
2018-07-26T23:51:50.784Z,46.40
2018-07-26T23:54:19.916Z,46.80
2018-07-26T23:56:49.266Z,47.00
2018-07-26T23:59:19.936Z,47.00
